sensor_id;sensor_type;location;lat;lon;timestamp;pressure;altitude;pressure_sealevel;temperature;humidity
42771;BME280;28426;42.872;25.314;2022-11-11T00:00:15;98088.34;;;4.30;83.89
42771;BME280;28426;42.872;25.314;2022-11-11T00:03:04;98082.44;;;4.38;83.60
42771;BME280;28426;42.872;25.314;2022-11-11T00:05:53;98090.16;;;4.41;83.13
42771;BME280;28426;42.872;25.314;2022-11-11T00:08:46;98099.50;;;4.45;82.83
42771;BME280;28426;42.872;25.314;2022-11-11T00:11:38;98087.97;;;4.47;82.18
42771;BME280;28426;42.872;25.314;2022-11-11T00:14:27;98085.22;;;4.48;82.35
42771;BME280;28426;42.872;25.314;2022-11-11T00:17:17;98089.53;;;4.49;82.01
42771;BME280;28426;42.872;25.314;2022-11-11T00:20:18;98093.03;;;4.50;81.17
42771;BME280;28426;42.872;25.314;2022-11-11T00:23:23;98084.25;;;4.49;80.77
42771;BME280;28426;42.872;25.314;2022-11-11T00:26:26;98086.03;;;4.49;80.51
42771;BME280;28426;42.872;25.314;2022-11-11T00:29:27;98097.34;;;4.51;80.78
42771;BME280;28426;42.872;25.314;2022-11-11T00:32:17;98090.13;;;4.53;80.91
42771;BME280;28426;42.872;25.314;2022-11-11T00:35:12;98092.75;;;4.53;81.41
42771;BME280;28426;42.872;25.314;2022-11-11T00:38:14;98097.94;;;4.54;81.07
42771;BME280;28426;42.872;25.314;2022-11-11T00:41:24;98092.41;;;4.57;80.63
42771;BME280;28426;42.872;25.314;2022-11-11T00:44:13;98087.13;;;4.57;80.16
42771;BME280;28426;42.872;25.314;2022-11-11T00:47:04;98084.59;;;4.56;79.91
42771;BME280;28426;42.872;25.314;2022-11-11T00:50:10;98093.13;;;4.60;79.59
42771;BME280;28426;42.872;25.314;2022-11-11T00:53:13;98088.78;;;4.58;78.90
42771;BME280;28426;42.872;25.314;2022-11-11T00:56:09;98081.84;;;4.57;79.16
42771;BME280;28426;42.872;25.314;2022-11-11T00:58:58;98089.66;;;4.59;79.01
42771;BME280;28426;42.872;25.314;2022-11-11T01:01:47;98083.50;;;4.58;79.09
42771;BME280;28426;42.872;25.314;2022-11-11T01:04:39;98084.59;;;4.56;78.85
42771;BME280;28426;42.872;25.314;2022-11-11T01:07:30;98094.09;;;4.58;78.96
42771;BME280;28426;42.872;25.314;2022-11-11T01:10:19;98085.44;;;4.56;78.69
42771;BME280;28426;42.872;25.314;2022-11-11T01:13:23;98083.91;;;4.54;78.81
42771;BME280;28426;42.872;25.314;2022-11-11T01:16:14;98078.00;;;4.50;79.02
42771;BME280;28426;42.872;25.314;2022-11-11T01:19:03;98079.06;;;4.48;79.09
42771;BME280;28426;42.872;25.314;2022-11-11T01:21:55;98075.72;;;4.45;78.83
42771;BME280;28426;42.872;25.314;2022-11-11T01:24:45;98075.00;;;4.43;78.92
42771;BME280;28426;42.872;25.314;2022-11-11T01:27:34;98076.94;;;4.41;79.21
42771;BME280;28426;42.872;25.314;2022-11-11T01:30:23;98077.91;;;4.40;79.42
42771;BME280;28426;42.872;25.314;2022-11-11T01:33:12;98072.72;;;4.39;79.56
42771;BME280;28426;42.872;25.314;2022-11-11T01:36:03;98069.34;;;4.37;79.76
42771;BME280;28426;42.872;25.314;2022-11-11T01:38:56;98065.50;;;4.41;79.57
42771;BME280;28426;42.872;25.314;2022-11-11T01:41:46;98066.59;;;4.38;79.37
42771;BME280;28426;42.872;25.314;2022-11-11T01:44:43;98057.84;;;4.38;79.41
42771;BME280;28426;42.872;25.314;2022-11-11T01:47:33;98061.44;;;4.37;78.97
42771;BME280;28426;42.872;25.314;2022-11-11T01:50:56;98054.47;;;4.36;79.42
42771;BME280;28426;42.872;25.314;2022-11-11T01:53:49;98058.78;;;4.37;79.44
42771;BME280;28426;42.872;25.314;2022-11-11T01:56:45;98059.63;;;4.37;79.54
42771;BME280;28426;42.872;25.314;2022-11-11T01:59:36;98063.84;;;4.40;79.46
42771;BME280;28426;42.872;25.314;2022-11-11T02:02:32;98061.19;;;4.40;79.48
42771;BME280;28426;42.872;25.314;2022-11-11T02:05:23;98054.13;;;4.40;79.27
42771;BME280;28426;42.872;25.314;2022-11-11T02:08:26;98065.50;;;4.41;78.37
42771;BME280;28426;42.872;25.314;2022-11-11T02:11:23;98061.19;;;4.40;77.96
42771;BME280;28426;42.872;25.314;2022-11-11T02:14:28;98061.44;;;4.37;77.72
42771;BME280;28426;42.872;25.314;2022-11-11T02:17:31;98061.44;;;4.37;77.84
42771;BME280;28426;42.872;25.314;2022-11-11T02:20:22;98063.25;;;4.36;77.60
42771;BME280;28426;42.872;25.314;2022-11-11T02:23:15;98054.47;;;4.36;77.64
42771;BME280;28426;42.872;25.314;2022-11-11T02:26:10;98065.03;;;4.36;77.74
42771;BME280;28426;42.872;25.314;2022-11-11T02:29:07;98055.44;;;4.35;77.71
42771;BME280;28426;42.872;25.314;2022-11-11T02:31:58;98054.59;;;4.34;77.67
42771;BME280;28426;42.872;25.314;2022-11-11T02:34:48;98058.91;;;4.35;77.77
42771;BME280;28426;42.872;25.314;2022-11-11T02:37:37;98063.38;;;4.35;77.66
42771;BME280;28426;42.872;25.314;2022-11-11T02:40:31;98053.53;;;4.25;77.76
42771;BME280;28426;42.872;25.314;2022-11-11T02:43:23;98071.53;;;4.31;77.85
42771;BME280;28426;42.872;25.314;2022-11-11T02:46:14;98065.41;;;4.31;78.13
42771;BME280;28426;42.872;25.314;2022-11-11T02:49:03;98062.88;;;4.29;78.22
42771;BME280;28426;42.872;25.314;2022-11-11T02:51:52;98077.91;;;4.29;78.33
42771;BME280;28426;42.872;25.314;2022-11-11T02:54:41;98075.25;;;4.29;78.31
42771;BME280;28426;42.872;25.314;2022-11-11T02:57:30;98073.47;;;4.29;78.15
42771;BME280;28426;42.872;25.314;2022-11-11T03:00:22;98074.28;;;4.30;78.06
42771;BME280;28426;42.872;25.314;2022-11-11T03:03:11;98074.28;;;4.30;77.81
42771;BME280;28426;42.872;25.314;2022-11-11T03:06:01;98078.63;;;4.31;78.21
42771;BME280;28426;42.872;25.314;2022-11-11T03:08:50;98066.34;;;4.30;78.28
42771;BME280;28426;42.872;25.314;2022-11-11T03:11:39;98069.84;;;4.30;78.29
42771;BME280;28426;42.872;25.314;2022-11-11T03:14:28;98067.22;;;4.30;78.21
42771;BME280;28426;42.872;25.314;2022-11-11T03:17:20;98073.19;;;4.32;78.58
42771;BME280;28426;42.872;25.314;2022-11-11T03:20:22;98069.63;;;4.34;78.31
42771;BME280;28426;42.872;25.314;2022-11-11T03:23:23;98058.94;;;4.24;78.18
42771;BME280;28426;42.872;25.314;2022-11-11T03:26:12;98068.06;;;4.31;78.42
42771;BME280;28426;42.872;25.314;2022-11-11T03:29:02;98063.84;;;4.28;78.22
42771;BME280;28426;42.872;25.314;2022-11-11T03:31:51;98072.84;;;4.26;78.50
42771;BME280;28426;42.872;25.314;2022-11-11T03:34:43;98063.25;;;4.25;78.53
42771;BME280;28426;42.872;25.314;2022-11-11T03:37:32;98072.03;;;4.25;78.43
42771;BME280;28426;42.872;25.314;2022-11-11T03:40:34;98078.13;;;4.26;78.45
42771;BME280;28426;42.872;25.314;2022-11-11T03:43:25;98077.31;;;4.25;78.69
42771;BME280;28426;42.872;25.314;2022-11-11T03:46:14;98085.94;;;4.27;78.52
42771;BME280;28426;42.872;25.314;2022-11-11T03:49:03;98086.69;;;4.29;78.73
42771;BME280;28426;42.872;25.314;2022-11-11T03:51:55;98095.19;;;4.33;78.83
42771;BME280;28426;42.872;25.314;2022-11-11T03:54:44;98088.81;;;4.36;78.83
42771;BME280;28426;42.872;25.314;2022-11-11T03:57:33;98078.97;;;4.38;78.86
42771;BME280;28426;42.872;25.314;2022-11-11T04:00:24;98084.13;;;4.39;78.82
42771;BME280;28426;42.872;25.314;2022-11-11T04:03:15;98086.66;;;4.41;78.65
42771;BME280;28426;42.872;25.314;2022-11-11T04:06:17;98078.03;;;4.39;78.88
42771;BME280;28426;42.872;25.314;2022-11-11T04:09:21;98079.47;;;4.43;78.81
42771;BME280;28426;42.872;25.314;2022-11-11T04:12:23;98084.63;;;4.44;79.00
42771;BME280;28426;42.872;25.314;2022-11-11T04:15:13;98083.53;;;4.47;78.79
42771;BME280;28426;42.872;25.314;2022-11-11T04:18:15;98082.56;;;4.48;79.05
42771;BME280;28426;42.872;25.314;2022-11-11T04:21:24;98073.91;;;4.46;79.29
42771;BME280;28426;42.872;25.314;2022-11-11T04:24:28;98077.88;;;4.52;79.19
42771;BME280;28426;42.872;25.314;2022-11-11T04:27:29;98075.97;;;4.54;79.40
42771;BME280;28426;42.872;25.314;2022-11-11T04:30:18;98081.94;;;4.56;79.25
42771;BME280;28426;42.872;25.314;2022-11-11T04:33:05;98084.47;;;4.57;79.26
42771;BME280;28426;42.872;25.314;2022-11-11T04:35:54;98085.91;;;4.62;79.40
42771;BME280;28426;42.872;25.314;2022-11-11T04:38:43;98085.81;;;4.63;79.47
42771;BME280;28426;42.872;25.314;2022-11-11T04:41:47;98089.03;;;4.67;79.25
42771;BME280;28426;42.872;25.314;2022-11-11T04:44:53;98091.44;;;4.70;79.70
42771;BME280;28426;42.872;25.314;2022-11-11T04:47:56;98080.59;;;4.73;79.85
42771;BME280;28426;42.872;25.314;2022-11-11T04:50:46;98084.22;;;4.72;79.67
42771;BME280;28426;42.872;25.314;2022-11-11T04:53:35;98086.03;;;4.60;78.45
42771;BME280;28426;42.872;25.314;2022-11-11T04:56:24;98085.84;;;4.17;75.34
42771;BME280;28426;42.872;25.314;2022-11-11T04:59:28;98096.03;;;3.52;76.66
42771;BME280;28426;42.872;25.314;2022-11-11T05:02:17;98094.31;;;3.04;78.01
42771;BME280;28426;42.872;25.314;2022-11-11T05:05:19;98102.38;;;2.65;80.24
42771;BME280;28426;42.872;25.314;2022-11-11T05:08:09;98107.25;;;2.45;83.08
42771;BME280;28426;42.872;25.314;2022-11-11T05:11:10;98108.25;;;2.31;84.49
42771;BME280;28426;42.872;25.314;2022-11-11T05:14:00;98106.75;;;2.27;86.28
42771;BME280;28426;42.872;25.314;2022-11-11T05:17:05;98109.50;;;2.25;86.60
42771;BME280;28426;42.872;25.314;2022-11-11T05:20:08;98111.28;;;2.25;87.33
42771;BME280;28426;42.872;25.314;2022-11-11T05:23:10;98115.38;;;2.29;87.55
42771;BME280;28426;42.872;25.314;2022-11-11T05:26:02;98107.47;;;2.29;88.20
42771;BME280;28426;42.872;25.314;2022-11-11T05:28:49;98107.91;;;2.35;89.38
42771;BME280;28426;42.872;25.314;2022-11-11T05:31:38;98108.59;;;2.51;93.19
42771;BME280;28426;42.872;25.314;2022-11-11T05:34:33;98106.06;;;2.86;98.98
42771;BME280;28426;42.872;25.314;2022-11-11T05:37:22;98113.88;;;3.12;97.66
42771;BME280;28426;42.872;25.314;2022-11-11T05:40:12;98114.72;;;3.37;96.31
42771;BME280;28426;42.872;25.314;2022-11-11T05:43:01;98115.63;;;3.61;96.14
42771;BME280;28426;42.872;25.314;2022-11-11T05:45:50;98124.56;;;3.83;95.22
42771;BME280;28426;42.872;25.314;2022-11-11T05:48:39;98119.31;;;4.05;94.88
42771;BME280;28426;42.872;25.314;2022-11-11T05:51:51;98117.53;;;4.29;93.85
42771;BME280;28426;42.872;25.314;2022-11-11T05:54:41;98129.28;;;4.48;93.31
42771;BME280;28426;42.872;25.314;2022-11-11T05:57:30;98125.34;;;4.65;92.38
42771;BME280;28426;42.872;25.314;2022-11-11T06:00:20;98123.25;;;4.80;91.76
42771;BME280;28426;42.872;25.314;2022-11-11T06:03:09;98138.59;;;4.97;91.17
42771;BME280;28426;42.872;25.314;2022-11-11T06:05:58;98140.84;;;5.14;90.48
42771;BME280;28426;42.872;25.314;2022-11-11T06:08:50;98132.88;;;5.25;89.83
42771;BME280;28426;42.872;25.314;2022-11-11T06:11:39;98135.22;;;5.40;89.33
42771;BME280;28426;42.872;25.314;2022-11-11T06:14:28;98138.44;;;5.55;89.16
42771;BME280;28426;42.872;25.314;2022-11-11T06:17:17;98144.38;;;5.68;88.52
42771;BME280;28426;42.872;25.314;2022-11-11T06:20:08;98143.47;;;5.79;88.32
42771;BME280;28426;42.872;25.314;2022-11-11T06:22:57;98154.72;;;5.93;87.96
42771;BME280;28426;42.872;25.314;2022-11-11T06:25:49;98163.59;;;6.03;87.48
42771;BME280;28426;42.872;25.314;2022-11-11T06:28:52;98170.06;;;6.10;86.93
42771;BME280;28426;42.872;25.314;2022-11-11T06:31:42;98168.31;;;6.21;86.40
42771;BME280;28426;42.872;25.314;2022-11-11T06:34:32;98174.66;;;6.30;86.17
42771;BME280;28426;42.872;25.314;2022-11-11T06:37:21;98180.28;;;6.36;85.98
42771;BME280;28426;42.872;25.314;2022-11-11T06:40:11;98173.00;;;6.38;85.39
42771;BME280;28426;42.872;25.314;2022-11-11T06:43:09;98183.69;;;6.48;85.40
42771;BME280;28426;42.872;25.314;2022-11-11T06:45:58;98185.09;;;6.52;85.06
42771;BME280;28426;42.872;25.314;2022-11-11T06:48:48;98182.75;;;6.59;84.56
42771;BME280;28426;42.872;25.314;2022-11-11T06:51:37;98196.59;;;6.63;84.59
42771;BME280;28426;42.872;25.314;2022-11-11T06:54:26;98201.22;;;6.71;84.73
42771;BME280;28426;42.872;25.314;2022-11-11T06:57:15;98209.59;;;6.76;84.32
42771;BME280;28426;42.872;25.314;2022-11-11T07:00:09;98205.03;;;6.78;84.20
42771;BME280;28426;42.872;25.314;2022-11-11T07:02:58;98201.69;;;6.86;84.12
42771;BME280;28426;42.872;25.314;2022-11-11T07:05:47;98204.09;;;6.89;83.96
42771;BME280;28426;42.872;25.314;2022-11-11T07:08:43;98207.88;;;6.96;84.21
42771;BME280;28426;42.872;25.314;2022-11-11T07:11:32;98205.66;;;7.01;84.58
42771;BME280;28426;42.872;25.314;2022-11-11T07:14:21;98209.88;;;7.14;85.05
42771;BME280;28426;42.872;25.314;2022-11-11T07:17:15;98227.25;;;7.28;85.73
42771;BME280;28426;42.872;25.314;2022-11-11T07:20:05;98216.38;;;7.41;85.85
42771;BME280;28426;42.872;25.314;2022-11-11T07:22:54;98226.75;;;7.54;86.20
42771;BME280;28426;42.872;25.314;2022-11-11T07:25:43;98226.88;;;7.62;85.81
42771;BME280;28426;42.872;25.314;2022-11-11T07:28:33;98237.94;;;7.77;85.61
42771;BME280;28426;42.872;25.314;2022-11-11T07:31:22;98238.22;;;7.84;85.73
42771;BME280;28426;42.872;25.314;2022-11-11T07:34:13;98232.78;;;7.95;85.73
42771;BME280;28426;42.872;25.314;2022-11-11T07:37:03;98224.81;;;7.95;85.56
42771;BME280;28426;42.872;25.314;2022-11-11T07:39:52;98239.63;;;8.08;85.81
42771;BME280;28426;42.872;25.314;2022-11-11T07:42:42;98245.50;;;8.11;85.56
42771;BME280;28426;42.872;25.314;2022-11-11T07:45:31;98247.03;;;8.14;85.80
42771;BME280;28426;42.872;25.314;2022-11-11T07:48:20;98253.03;;;8.16;86.36
42771;BME280;28426;42.872;25.314;2022-11-11T07:51:12;98255.56;;;8.18;86.17
42771;BME280;28426;42.872;25.314;2022-11-11T07:54:02;98253.75;;;8.18;86.26
42771;BME280;28426;42.872;25.314;2022-11-11T07:56:51;98253.63;;;8.20;86.45
42771;BME280;28426;42.872;25.314;2022-11-11T07:59:40;98260.75;;;8.19;86.45
42771;BME280;28426;42.872;25.314;2022-11-11T08:02:31;98256.28;;;8.20;86.47
42771;BME280;28426;42.872;25.314;2022-11-11T08:05:19;98252.75;;;8.19;86.59
42771;BME280;28426;42.872;25.314;2022-11-11T08:08:12;98262.56;;;8.19;86.84
42771;BME280;28426;42.872;25.314;2022-11-11T08:11:00;98267.03;;;8.18;87.23
42771;BME280;28426;42.872;25.314;2022-11-11T08:13:50;98272.50;;;8.17;87.10
42771;BME280;28426;42.872;25.314;2022-11-11T08:16:37;98274.31;;;8.16;87.46
42771;BME280;28426;42.872;25.314;2022-11-11T08:19:26;98279.78;;;8.15;87.20
42771;BME280;28426;42.872;25.314;2022-11-11T08:22:15;98268.16;;;8.06;87.44
42771;BME280;28426;42.872;25.314;2022-11-11T08:25:09;98290.84;;;8.10;87.18
42771;BME280;28426;42.872;25.314;2022-11-11T08:28:01;98297.00;;;8.10;87.09
42771;BME280;28426;42.872;25.314;2022-11-11T08:30:50;98301.47;;;8.10;87.28
42771;BME280;28426;42.872;25.314;2022-11-11T08:33:44;98298.13;;;8.08;87.12
42771;BME280;28426;42.872;25.314;2022-11-11T08:36:34;98308.03;;;8.06;87.10
42771;BME280;28426;42.872;25.314;2022-11-11T08:39:23;98316.16;;;8.04;87.43
42771;BME280;28426;42.872;25.314;2022-11-11T08:42:15;98312.94;;;8.01;87.15
42771;BME280;28426;42.872;25.314;2022-11-11T08:45:05;98317.69;;;7.97;87.46
42771;BME280;28426;42.872;25.314;2022-11-11T08:47:54;98322.16;;;7.96;87.27
42771;BME280;28426;42.872;25.314;2022-11-11T08:50:43;98318.66;;;7.96;87.51
42771;BME280;28426;42.872;25.314;2022-11-11T08:53:32;98323.97;;;7.96;87.67
42771;BME280;28426;42.872;25.314;2022-11-11T08:56:21;98318.53;;;7.97;88.04
42771;BME280;28426;42.872;25.314;2022-11-11T08:59:13;98325.53;;;7.98;87.94
42771;BME280;28426;42.872;25.314;2022-11-11T09:02:02;98330.56;;;8.02;88.14
42771;BME280;28426;42.872;25.314;2022-11-11T09:04:51;98330.56;;;8.02;88.38
42771;BME280;28426;42.872;25.314;2022-11-11T09:07:40;98328.63;;;8.04;88.70
42771;BME280;28426;42.872;25.314;2022-11-11T09:10:30;98327.63;;;8.05;88.68
42771;BME280;28426;42.872;25.314;2022-11-11T09:13:19;98323.00;;;8.07;88.69
42771;BME280;28426;42.872;25.314;2022-11-11T09:16:11;98316.56;;;8.09;88.90
42771;BME280;28426;42.872;25.314;2022-11-11T09:19:01;98323.41;;;8.12;88.74
42771;BME280;28426;42.872;25.314;2022-11-11T09:21:50;98323.28;;;8.14;88.87
42771;BME280;28426;42.872;25.314;2022-11-11T09:24:39;98309.03;;;8.15;88.95
42771;BME280;28426;42.872;25.314;2022-11-11T09:27:29;98308.88;;;8.16;89.39
42771;BME280;28426;42.872;25.314;2022-11-11T09:30:18;98319.25;;;8.19;89.33
42771;BME280;28426;42.872;25.314;2022-11-11T09:33:10;98311.97;;;8.21;89.36
42771;BME280;28426;42.872;25.314;2022-11-11T09:36:01;98315.31;;;8.23;89.81
42771;BME280;28426;42.872;25.314;2022-11-11T09:38:50;98308.19;;;8.24;89.63
42771;BME280;28426;42.872;25.314;2022-11-11T09:41:47;98312.38;;;8.27;89.55
42771;BME280;28426;42.872;25.314;2022-11-11T09:45:02;98297.69;;;8.22;89.61
42771;BME280;28426;42.872;25.314;2022-11-11T09:48:04;98298.09;;;8.28;89.80
42771;BME280;28426;42.872;25.314;2022-11-11T09:50:58;98302.44;;;8.29;90.03
42771;BME280;28426;42.872;25.314;2022-11-11T09:53:53;98306.78;;;8.30;90.11
42771;BME280;28426;42.872;25.314;2022-11-11T09:56:46;98301.44;;;8.30;90.29
42771;BME280;28426;42.872;25.314;2022-11-11T09:59:40;98299.66;;;8.30;90.05
42771;BME280;28426;42.872;25.314;2022-11-11T10:02:38;98303.16;;;8.31;90.58
42771;BME280;28426;42.872;25.314;2022-11-11T10:05:33;98299.38;;;8.33;90.59
42771;BME280;28426;42.872;25.314;2022-11-11T10:08:29;98294.88;;;8.34;90.46
42771;BME280;28426;42.872;25.314;2022-11-11T10:11:24;98293.75;;;8.36;90.27
42771;BME280;28426;42.872;25.314;2022-11-11T10:14:14;98289.28;;;8.37;90.60
42771;BME280;28426;42.872;25.314;2022-11-11T10:17:11;98288.28;;;8.38;90.55
42771;BME280;28426;42.872;25.314;2022-11-11T10:20:10;98283.69;;;8.40;90.91
42771;BME280;28426;42.872;25.314;2022-11-11T10:23:06;98289.69;;;8.42;91.00
42771;BME280;28426;42.872;25.314;2022-11-11T10:26:08;98279.91;;;8.43;90.82
42771;BME280;28426;42.872;25.314;2022-11-11T10:29:01;98279.75;;;8.44;90.87
42771;BME280;28426;42.872;25.314;2022-11-11T10:31:57;98288.56;;;8.45;90.87
42771;BME280;28426;42.872;25.314;2022-11-11T10:34:50;98278.22;;;8.42;90.99
42771;BME280;28426;42.872;25.314;2022-11-11T10:37:41;98284.91;;;8.46;91.00
42771;BME280;28426;42.872;25.314;2022-11-11T10:40:36;98283.97;;;8.47;90.89
42771;BME280;28426;42.872;25.314;2022-11-11T10:43:30;98285.63;;;8.48;90.63
42771;BME280;28426;42.872;25.314;2022-11-11T10:46:21;98275.97;;;8.47;90.67
42771;BME280;28426;42.872;25.314;2022-11-11T10:49:15;98279.31;;;8.49;90.83
42771;BME280;28426;42.872;25.314;2022-11-11T10:52:09;98264.75;;;8.43;90.57
42771;BME280;28426;42.872;25.314;2022-11-11T10:55:03;98276.53;;;8.50;90.70
42771;BME280;28426;42.872;25.314;2022-11-11T10:57:57;98274.72;;;8.51;90.80
42771;BME280;28426;42.872;25.314;2022-11-11T11:00:52;98280.03;;;8.51;91.17
42771;BME280;28426;42.872;25.314;2022-11-11T11:03:46;98280.03;;;8.51;90.94
42771;BME280;28426;42.872;25.314;2022-11-11T11:06:42;98274.56;;;8.53;90.76
42771;BME280;28426;42.872;25.314;2022-11-11T11:09:36;98271.78;;;8.54;91.04
42771;BME280;28426;42.872;25.314;2022-11-11T11:12:34;98270.81;;;8.55;91.15
42771;BME280;28426;42.872;25.314;2022-11-11T11:15:26;98263.66;;;8.56;91.30
42771;BME280;28426;42.872;25.314;2022-11-11T11:18:19;98269.97;;;8.55;91.02
42771;BME280;28426;42.872;25.314;2022-11-11T11:21:09;98264.91;;;8.51;90.73
42771;BME280;28426;42.872;25.314;2022-11-11T11:23:58;98270.53;;;8.48;90.80
42771;BME280;28426;42.872;25.314;2022-11-11T11:26:49;98269.81;;;8.46;91.35
42771;BME280;28426;42.872;25.314;2022-11-11T11:29:41;98259.44;;;8.43;91.54
42771;BME280;28426;42.872;25.314;2022-11-11T11:32:31;98263.09;;;8.42;91.42
42771;BME280;28426;42.872;25.314;2022-11-11T11:35:33;98256.94;;;8.42;92.01
42771;BME280;28426;42.872;25.314;2022-11-11T11:38:39;98270.38;;;8.40;91.37
42771;BME280;28426;42.872;25.314;2022-11-11T11:41:36;98272.34;;;8.38;91.41
42771;BME280;28426;42.872;25.314;2022-11-11T11:44:28;98267.31;;;8.35;91.41
42771;BME280;28426;42.872;25.314;2022-11-11T11:47:30;98273.59;;;8.34;91.37
42771;BME280;28426;42.872;25.314;2022-11-11T11:50:44;98277.38;;;8.31;91.42
42771;BME280;28426;42.872;25.314;2022-11-11T11:53:44;98272.38;;;8.28;91.55
42771;BME280;28426;42.872;25.314;2022-11-11T11:56:39;98283.56;;;8.32;91.65
42771;BME280;28426;42.872;25.314;2022-11-11T11:59:35;98279.91;;;8.33;91.61
42771;BME280;28426;42.872;25.314;2022-11-11T12:02:43;98286.91;;;8.34;91.89
42771;BME280;28426;42.872;25.314;2022-11-11T12:05:39;98282.97;;;8.38;91.83
42771;BME280;28426;42.872;25.314;2022-11-11T12:08:41;98291.66;;;8.40;92.04
42771;BME280;28426;42.872;25.314;2022-11-11T12:11:38;98290.69;;;8.41;91.39
42771;BME280;28426;42.872;25.314;2022-11-11T12:14:44;98285.63;;;8.38;91.29
42771;BME280;28426;42.872;25.314;2022-11-11T12:17:44;98289.69;;;8.42;91.30
42771;BME280;28426;42.872;25.314;2022-11-11T12:20:40;98299.34;;;8.43;91.35
42771;BME280;28426;42.872;25.314;2022-11-11T12:23:54;98293.19;;;8.43;91.02
42771;BME280;28426;42.872;25.314;2022-11-11T12:26:49;98286.03;;;8.43;91.13
42771;BME280;28426;42.872;25.314;2022-11-11T12:29:52;98293.06;;;8.44;91.11
42771;BME280;28426;42.872;25.314;2022-11-11T12:36:08;98287.44;;;8.47;91.16
42771;BME280;28426;42.872;25.314;2022-11-11T12:39:05;98303.41;;;8.47;90.82
42771;BME280;28426;42.872;25.314;2022-11-11T12:42:08;98296.41;;;8.46;90.53
42771;BME280;28426;42.872;25.314;2022-11-11T12:45:06;98291.38;;;8.43;90.56
42771;BME280;28426;42.872;25.314;2022-11-11T12:48:05;98292.50;;;8.41;90.06
42771;BME280;28426;42.872;25.314;2022-11-11T12:51:08;98298.78;;;8.40;89.68
42771;BME280;28426;42.872;25.314;2022-11-11T12:54:10;98305.09;;;8.38;89.78
42771;BME280;28426;42.872;25.314;2022-11-11T12:57:10;98303.97;;;8.41;89.44
42771;BME280;28426;42.872;25.314;2022-11-11T13:00:08;98307.31;;;8.43;89.40
42771;BME280;28426;42.872;25.314;2022-11-11T13:03:06;98308.31;;;8.42;89.36
42771;BME280;28426;42.872;25.314;2022-11-11T13:06:10;98311.09;;;8.41;88.81
42771;BME280;28426;42.872;25.314;2022-11-11T13:12:24;98308.03;;;8.35;88.44
42771;BME280;28426;42.872;25.314;2022-11-11T13:15:21;98307.34;;;8.33;88.53
42771;BME280;28426;42.872;25.314;2022-11-11T13:18:14;98296.84;;;8.22;88.13
42771;BME280;28426;42.872;25.314;2022-11-11T13:21:08;98314.06;;;8.28;88.61
42771;BME280;28426;42.872;25.314;2022-11-11T13:23:58;98310.41;;;8.29;88.64
42771;BME280;28426;42.872;25.314;2022-11-11T13:26:50;98305.09;;;8.29;88.70
42771;BME280;28426;42.872;25.314;2022-11-11T13:30:21;98306.78;;;8.30;89.05
42771;BME280;28426;42.872;25.314;2022-11-11T13:33:17;98308.75;;;8.28;88.25
42771;BME280;28426;42.872;25.314;2022-11-11T13:36:11;98313.22;;;8.27;88.35
42771;BME280;28426;42.872;25.314;2022-11-11T13:39:03;98321.31;;;8.25;88.49
42771;BME280;28426;42.872;25.314;2022-11-11T13:41:54;98311.69;;;8.24;88.43
42771;BME280;28426;42.872;25.314;2022-11-11T13:44:49;98323.16;;;8.25;88.54
42771;BME280;28426;42.872;25.314;2022-11-11T13:47:44;98312.38;;;8.27;88.62
42771;BME280;28426;42.872;25.314;2022-11-11T13:50:35;98317.72;;;8.27;88.41
42771;BME280;28426;42.872;25.314;2022-11-11T13:53:27;98318.53;;;8.27;88.81
42771;BME280;28426;42.872;25.314;2022-11-11T13:56:27;98322.03;;;8.28;88.30
42771;BME280;28426;42.872;25.314;2022-11-11T13:59:21;98318.53;;;8.27;88.23
42771;BME280;28426;42.872;25.314;2022-11-11T14:02:28;98328.34;;;8.27;88.35
42771;BME280;28426;42.872;25.314;2022-11-11T14:05:23;98330.03;;;8.28;88.52
42771;BME280;28426;42.872;25.314;2022-11-11T14:11:33;98332.41;;;8.31;88.76
42771;BME280;28426;42.872;25.314;2022-11-11T14:14:44;98325.13;;;8.33;88.71
42771;BME280;28426;42.872;25.314;2022-11-11T14:17:42;98329.44;;;8.34;88.72
42771;BME280;28426;42.872;25.314;2022-11-11T14:20:37;98331.16;;;8.35;88.50
42771;BME280;28426;42.872;25.314;2022-11-11T14:23:33;98326.09;;;8.32;88.26
42771;BME280;28426;42.872;25.314;2022-11-11T14:26:27;98332.41;;;8.31;88.11
42771;BME280;28426;42.872;25.314;2022-11-11T14:29:18;98332.41;;;8.31;88.44
42771;BME280;28426;42.872;25.314;2022-11-11T14:32:24;98334.22;;;8.30;88.37
42771;BME280;28426;42.872;25.314;2022-11-11T14:35:31;98330.56;;;8.31;88.47
42771;BME280;28426;42.872;25.314;2022-11-11T14:38:33;98337.56;;;8.32;88.76
42771;BME280;28426;42.872;25.314;2022-11-11T14:41:53;98334.78;;;8.34;88.89
42771;BME280;28426;42.872;25.314;2022-11-11T14:44:43;98327.78;;;8.33;88.60
42771;BME280;28426;42.872;25.314;2022-11-11T14:47:39;98323.03;;;8.27;88.67
42771;BME280;28426;42.872;25.314;2022-11-11T14:50:42;98322.19;;;8.26;88.52
42771;BME280;28426;42.872;25.314;2022-11-11T14:53:37;98328.47;;;8.25;88.30
42771;BME280;28426;42.872;25.314;2022-11-11T14:56:30;98330.16;;;8.26;88.75
42771;BME280;28426;42.872;25.314;2022-11-11T14:59:22;98322.19;;;8.26;88.65
42771;BME280;28426;42.872;25.314;2022-11-11T15:02:24;98330.03;;;8.28;88.80
42771;BME280;28426;42.872;25.314;2022-11-11T15:05:17;98321.91;;;8.29;88.80
42771;BME280;28426;42.872;25.314;2022-11-11T15:08:18;98326.38;;;8.29;88.87
42771;BME280;28426;42.872;25.314;2022-11-11T15:11:26;98331.81;;;8.27;88.51
42771;BME280;28426;42.872;25.314;2022-11-11T15:14:26;98331.16;;;8.25;88.37
42771;BME280;28426;42.872;25.314;2022-11-11T15:17:23;98328.63;;;8.23;88.42
42771;BME280;28426;42.872;25.314;2022-11-11T15:20:28;98333.94;;;8.23;88.61
42771;BME280;28426;42.872;25.314;2022-11-11T15:23:25;98334.06;;;8.22;88.66
42771;BME280;28426;42.872;25.314;2022-11-11T15:26:23;98335.91;;;8.21;88.89
42771;BME280;28426;42.872;25.314;2022-11-11T15:29:32;98336.59;;;8.23;88.80
42771;BME280;28426;42.872;25.314;2022-11-11T15:32:34;98335.59;;;8.24;88.83